createdAt,value
2018-12-06T00:01:37.920Z,81.40
2018-12-06T00:04:06.295Z,81.44
2018-12-06T00:06:34.595Z,81.74
2018-12-06T00:09:03.073Z,81.51
2018-12-06T00:11:31.379Z,82.14
2018-12-06T00:13:59.675Z,81.73
2018-12-06T00:16:27.999Z,81.73
2018-12-06T00:19:07.579Z,81.79
2018-12-06T00:21:36.486Z,81.88
2018-12-06T00:24:04.877Z,81.25
2018-12-06T00:26:33.097Z,81.84
2018-12-06T00:29:01.333Z,81.95
2018-12-06T00:31:29.620Z,81.86
2018-12-06T00:33:57.854Z,81.64
2018-12-06T00:36:26.226Z,81.96
2018-12-06T00:38:54.493Z,82.76
2018-12-06T00:41:22.824Z,81.92
2018-12-06T00:43:51.166Z,82.02
2018-12-06T00:46:19.410Z,81.59
2018-12-06T00:48:47.716Z,81.64
2018-12-06T00:51:15.943Z,82.39
2018-12-06T00:53:44.167Z,81.88
2018-12-06T00:56:12.436Z,81.57
2018-12-06T00:58:40.691Z,81.50
2018-12-06T01:01:08.992Z,81.05
2018-12-06T01:03:37.272Z,81.62
2018-12-06T01:06:06.493Z,81.69
2018-12-06T01:08:34.839Z,81.60
2018-12-06T01:11:03.195Z,81.32
2018-12-06T01:13:31.577Z,82.06
2018-12-06T01:15:59.929Z,81.99
2018-12-06T01:18:28.159Z,81.92
2018-12-06T01:20:56.531Z,82.32
2018-12-06T01:23:24.870Z,82.65
2018-12-06T01:25:54.127Z,83.07
2018-12-06T01:28:22.375Z,83.15
2018-12-06T01:30:50.596Z,83.09
2018-12-06T01:33:18.863Z,82.70
2018-12-06T01:35:47.109Z,83.04
2018-12-06T01:38:15.398Z,82.95
2018-12-06T01:40:43.648Z,83.00
2018-12-06T01:43:11.947Z,83.35
2018-12-06T01:45:40.175Z,83.31
2018-12-06T01:48:08.402Z,83.68
2018-12-06T01:50:36.611Z,83.48
2018-12-06T01:53:04.863Z,84.09
2018-12-06T01:55:33.352Z,83.63
2018-12-06T01:58:01.880Z,83.86
2018-12-06T02:00:30.186Z,84.38
2018-12-06T02:02:58.486Z,83.83
2018-12-06T02:05:26.744Z,84.42
2018-12-06T02:07:54.982Z,83.71
2018-12-06T02:10:23.275Z,84.16
2018-12-06T02:12:51.557Z,83.66
2018-12-06T02:15:19.763Z,84.01
2018-12-06T02:17:47.996Z,83.53
2018-12-06T02:20:16.355Z,83.27
2018-12-06T02:22:44.579Z,83.85
2018-12-06T02:25:13.247Z,83.99
2018-12-06T02:27:41.502Z,84.15
2018-12-06T02:30:09.825Z,84.59
2018-12-06T02:32:38.052Z,83.97
2018-12-06T02:35:06.555Z,84.29
2018-12-06T02:37:34.849Z,84.32
2018-12-06T02:40:04.267Z,84.04
2018-12-06T02:42:32.609Z,84.20
2018-12-06T02:45:00.859Z,84.60
2018-12-06T02:47:29.067Z,84.11
2018-12-06T02:49:57.304Z,84.12
2018-12-06T02:52:26.143Z,83.72
2018-12-06T02:54:54.453Z,84.16
2018-12-06T02:57:22.767Z,84.56
2018-12-06T02:59:51.061Z,84.38
2018-12-06T03:02:19.437Z,84.65
2018-12-06T03:04:47.765Z,84.97
2018-12-06T03:07:16.101Z,84.92
2018-12-06T03:09:46.273Z,85.54
2018-12-06T03:12:14.583Z,85.71
2018-12-06T03:14:42.882Z,85.54
2018-12-06T03:17:11.112Z,85.30
2018-12-06T03:19:39.452Z,85.55
2018-12-06T03:22:07.659Z,85.88
2018-12-06T03:24:35.863Z,85.76
2018-12-06T03:27:04.115Z,85.51
2018-12-06T03:29:32.449Z,85.65
2018-12-06T03:32:00.780Z,86.16
2018-12-06T03:34:29.076Z,85.77
2018-12-06T03:36:57.355Z,86.27
2018-12-06T03:39:25.564Z,85.79
2018-12-06T03:41:53.788Z,85.97
2018-12-06T03:44:21.997Z,86.02
2018-12-06T03:46:50.860Z,86.21
2018-12-06T03:49:19.138Z,86.20
2018-12-06T03:51:47.467Z,86.52
2018-12-06T03:54:15.793Z,86.09
2018-12-06T03:56:44.142Z,86.80
2018-12-06T03:59:12.440Z,86.64
2018-12-06T04:01:40.689Z,86.96
2018-12-06T04:04:08.991Z,87.00
2018-12-06T04:06:37.212Z,86.88
2018-12-06T04:09:07.285Z,86.77
2018-12-06T04:11:35.502Z,87.25
2018-12-06T04:14:03.850Z,87.50
2018-12-06T04:16:32.091Z,87.34
2018-12-06T04:19:00.533Z,87.71
2018-12-06T04:21:28.825Z,88.16
2018-12-06T04:23:57.163Z,87.49
2018-12-06T04:26:25.530Z,87.72
2018-12-06T04:28:54.011Z,87.82
2018-12-06T04:31:22.335Z,89.00
2018-12-06T04:33:50.663Z,88.53
2018-12-06T04:36:18.881Z,87.85
2018-12-06T04:38:47.245Z,88.20
2018-12-06T04:41:15.607Z,88.46
2018-12-06T04:43:43.925Z,88.81
2018-12-06T04:46:12.292Z,88.37
2018-12-06T04:48:40.540Z,88.32
2018-12-06T04:51:08.823Z,87.97
2018-12-06T04:53:37.034Z,88.68
2018-12-06T04:56:05.326Z,88.71
2018-12-06T04:58:33.541Z,88.24
2018-12-06T05:01:01.803Z,88.21
2018-12-06T05:03:30.218Z,88.50
2018-12-06T05:05:58.568Z,88.25
2018-12-06T05:08:26.767Z,88.21
2018-12-06T05:10:55.076Z,88.43
2018-12-06T05:13:23.289Z,88.69
2018-12-06T05:15:51.499Z,88.35
2018-12-06T05:18:19.703Z,88.40
2018-12-06T05:20:48.015Z,88.36
2018-12-06T05:23:16.236Z,88.34
2018-12-06T05:25:44.441Z,88.12
2018-12-06T05:28:12.792Z,88.26
2018-12-06T05:30:41.176Z,88.38
2018-12-06T05:33:09.379Z,88.00
2018-12-06T05:35:37.672Z,89.80
2018-12-06T05:38:05.971Z,88.48
2018-12-06T05:40:34.196Z,87.72
2018-12-06T05:43:02.404Z,87.31
2018-12-06T05:45:30.616Z,87.37
2018-12-06T05:47:59.045Z,87.40
2018-12-06T05:50:27.351Z,87.71
2018-12-06T05:52:55.546Z,87.91
2018-12-06T05:55:23.872Z,88.11
2018-12-06T05:57:52.163Z,88.09
2018-12-06T06:00:20.390Z,88.74
2018-12-06T06:02:48.699Z,88.43
2018-12-06T06:05:16.899Z,88.51
2018-12-06T06:07:45.219Z,88.25
2018-12-06T06:10:13.527Z,88.51
2018-12-06T06:12:41.774Z,88.58
2018-12-06T06:15:10.111Z,88.33
2018-12-06T06:17:38.307Z,88.35
2018-12-06T06:20:06.690Z,88.00
2018-12-06T06:22:35.030Z,87.87
2018-12-06T06:25:03.591Z,88.27
2018-12-06T06:27:31.821Z,88.45
2018-12-06T06:30:00.064Z,88.19
2018-12-06T06:32:28.427Z,87.38
2018-12-06T06:34:56.755Z,87.86
2018-12-06T06:37:25.008Z,87.64
2018-12-06T06:39:53.308Z,88.05
2018-12-06T06:42:21.514Z,87.67
2018-12-06T06:44:49.720Z,87.70
2018-12-06T06:47:17.975Z,87.87
2018-12-06T06:49:46.313Z,88.39
2018-12-06T06:52:14.605Z,87.83
2018-12-06T06:54:42.825Z,87.58
2018-12-06T06:57:11.120Z,87.39
2018-12-06T06:59:39.366Z,87.53
2018-12-06T07:02:07.744Z,87.73
2018-12-06T07:04:35.952Z,87.41
2018-12-06T07:07:04.266Z,87.27
2018-12-06T07:09:32.544Z,87.49
2018-12-06T07:12:00.848Z,87.14
2018-12-06T07:14:29.160Z,87.54
2018-12-06T07:16:57.434Z,87.42
2018-12-06T07:19:25.771Z,87.54
2018-12-06T07:21:54.003Z,87.27
2018-12-06T07:24:22.248Z,87.17
2018-12-06T07:26:50.507Z,87.51
2018-12-06T07:29:18.902Z,87.49
2018-12-06T07:31:47.196Z,86.92
2018-12-06T07:34:15.414Z,86.88
2018-12-06T07:36:43.699Z,87.05
2018-12-06T07:39:12.003Z,87.40
2018-12-06T07:41:40.191Z,87.15
2018-12-06T07:44:08.487Z,86.49
2018-12-06T07:46:36.822Z,86.40
2018-12-06T07:49:05.079Z,86.08
2018-12-06T07:51:33.284Z,86.03
2018-12-06T07:54:01.652Z,85.94
2018-12-06T07:56:29.905Z,85.57
2018-12-06T07:58:58.122Z,85.33
2018-12-06T08:01:26.468Z,84.89
2018-12-06T08:03:54.817Z,84.50
2018-12-06T08:06:23.051Z,84.20
2018-12-06T08:08:51.272Z,84.44
2018-12-06T08:11:19.607Z,83.61
2018-12-06T08:13:48.063Z,83.54
2018-12-06T08:16:16.313Z,83.49
2018-12-06T08:18:44.652Z,83.56
2018-12-06T08:21:12.870Z,83.98
2018-12-06T08:23:41.092Z,84.09
2018-12-06T08:26:09.312Z,84.56
2018-12-06T08:28:37.711Z,84.00
2018-12-06T08:31:06.093Z,84.82
2018-12-06T08:33:34.463Z,84.29
2018-12-06T08:36:02.703Z,84.46
2018-12-06T08:38:31.025Z,84.09
2018-12-06T08:40:59.334Z,84.50
2018-12-06T08:43:27.935Z,84.67
2018-12-06T08:45:56.224Z,84.65
2018-12-06T08:48:24.520Z,84.47
2018-12-06T08:50:52.812Z,85.09
2018-12-06T08:53:21.015Z,84.50
2018-12-06T08:55:49.297Z,84.96
2018-12-06T08:58:17.556Z,84.67
2018-12-06T09:00:45.848Z,84.24
2018-12-06T09:03:14.057Z,84.60
2018-12-06T09:05:42.376Z,84.64
2018-12-06T09:08:10.748Z,84.70
2018-12-06T09:10:40.611Z,84.87
2018-12-06T09:13:09.067Z,84.78
2018-12-06T09:15:37.312Z,84.69
2018-12-06T09:18:05.656Z,84.83
2018-12-06T09:20:33.968Z,84.87
2018-12-06T09:23:02.236Z,84.90
2018-12-06T09:25:30.527Z,84.92
2018-12-06T09:27:58.796Z,85.04
2018-12-06T09:30:27.075Z,85.46
2018-12-06T09:32:55.397Z,84.57
2018-12-06T09:35:23.829Z,84.81
2018-12-06T09:37:52.207Z,85.05
2018-12-06T09:40:20.452Z,84.80
2018-12-06T09:42:48.863Z,85.11
2018-12-06T09:45:17.136Z,84.84
2018-12-06T09:47:45.368Z,84.46
2018-12-06T09:50:13.795Z,85.25
2018-12-06T09:52:42.076Z,85.14
2018-12-06T09:55:10.366Z,85.13
2018-12-06T09:57:38.635Z,85.34
2018-12-06T10:00:10.447Z,85.17
2018-12-06T10:02:38.751Z,85.33
2018-12-06T10:05:07.022Z,85.59
2018-12-06T10:07:35.239Z,85.41
2018-12-06T10:10:04.303Z,84.90
2018-12-06T10:12:32.561Z,84.45
2018-12-06T10:15:00.859Z,84.39
2018-12-06T10:17:29.136Z,84.26
2018-12-06T10:19:57.392Z,83.49
2018-12-06T10:22:25.688Z,83.50
2018-12-06T10:24:53.964Z,83.81
2018-12-06T10:27:22.171Z,82.74
2018-12-06T10:29:50.431Z,83.30
2018-12-06T10:32:18.688Z,83.30
2018-12-06T10:34:53.341Z,82.85
2018-12-06T10:37:17.321Z,83.12
2018-12-06T10:39:45.629Z,83.21
2018-12-06T10:42:13.851Z,83.12
2018-12-06T10:44:42.156Z,82.29
2018-12-06T10:47:10.392Z,82.35
2018-12-06T10:49:38.779Z,82.79
2018-12-06T10:52:07.080Z,82.26
2018-12-06T10:54:35.313Z,82.42
2018-12-06T10:57:03.565Z,82.34
2018-12-06T10:59:31.873Z,82.33
2018-12-06T11:02:03.028Z,81.85
2018-12-06T11:04:35.860Z,82.52
2018-12-06T11:07:04.988Z,82.79
2018-12-06T11:09:33.487Z,82.66
2018-12-06T11:12:01.745Z,82.30
2018-12-06T11:14:30.091Z,81.98
2018-12-06T11:16:58.541Z,81.78
2018-12-06T11:19:26.782Z,82.16
2018-12-06T11:21:55.182Z,82.33
2018-12-06T11:24:23.483Z,82.87
2018-12-06T11:26:51.736Z,82.49
2018-12-06T11:29:19.952Z,82.92
2018-12-06T11:31:48.372Z,82.68
2018-12-06T11:34:16.655Z,82.59
2018-12-06T11:36:44.912Z,83.02
2018-12-06T11:39:13.203Z,82.32
2018-12-06T11:41:43.230Z,82.72
2018-12-06T11:44:11.684Z,83.53
2018-12-06T11:46:40.004Z,83.58
2018-12-06T11:49:08.240Z,84.82
2018-12-06T11:51:36.531Z,84.78
2018-12-06T11:54:04.847Z,84.67
2018-12-06T11:56:33.279Z,84.71
2018-12-06T11:59:01.545Z,84.79
2018-12-06T12:01:29.835Z,84.99
2018-12-06T12:03:58.215Z,84.29
2018-12-06T12:06:26.438Z,82.87
2018-12-06T12:08:54.657Z,82.99
2018-12-06T12:11:22.926Z,82.80
2018-12-06T12:13:51.276Z,82.66
2018-12-06T12:16:19.496Z,82.55
2018-12-06T12:18:47.723Z,83.05
2018-12-06T12:21:16.001Z,83.02
2018-12-06T12:23:44.307Z,82.62
2018-12-06T12:26:12.522Z,82.35
2018-12-06T12:28:40.800Z,81.53
2018-12-06T12:31:09.016Z,80.97
2018-12-06T12:33:37.356Z,80.27
2018-12-06T12:36:05.565Z,79.09
2018-12-06T12:38:33.814Z,78.19
2018-12-06T12:41:02.070Z,77.08
2018-12-06T12:43:30.439Z,75.61
2018-12-06T12:45:58.655Z,73.15
2018-12-06T12:48:26.896Z,72.22
2018-12-06T12:50:55.159Z,73.66
2018-12-06T12:53:23.411Z,73.25
2018-12-06T12:55:51.718Z,73.50
2018-12-06T12:58:19.991Z,73.25
2018-12-06T13:00:48.280Z,72.99
2018-12-06T13:03:16.543Z,72.54
2018-12-06T13:05:44.814Z,72.49
2018-12-06T13:08:13.191Z,71.69
2018-12-06T13:10:41.504Z,71.21
2018-12-06T13:13:09.721Z,71.62
2018-12-06T13:15:37.968Z,71.86
2018-12-06T13:18:06.224Z,72.36
2018-12-06T13:20:34.576Z,71.97
2018-12-06T13:23:02.790Z,72.01
2018-12-06T13:25:31.090Z,72.27
2018-12-06T13:27:59.428Z,71.32
2018-12-06T13:30:27.655Z,69.04
2018-12-06T13:32:55.924Z,69.93
2018-12-06T13:35:24.144Z,70.64
2018-12-06T13:37:52.434Z,71.36
2018-12-06T13:40:20.799Z,70.75
2018-12-06T13:42:49.151Z,70.35
2018-12-06T13:45:17.536Z,71.14
2018-12-06T13:47:45.829Z,71.52
2018-12-06T13:50:14.163Z,72.42
2018-12-06T13:52:42.576Z,73.03
2018-12-06T13:55:10.847Z,73.09
2018-12-06T13:57:39.073Z,72.28
2018-12-06T14:00:07.527Z,72.13
2018-12-06T14:02:35.782Z,72.93
2018-12-06T14:05:04.208Z,73.48
2018-12-06T14:07:32.641Z,73.14
2018-12-06T14:10:00.956Z,73.80
2018-12-06T14:12:29.277Z,73.30
2018-12-06T14:14:57.622Z,73.28
2018-12-06T14:17:25.835Z,73.22
2018-12-06T14:19:54.058Z,73.20
2018-12-06T14:22:22.297Z,72.79
2018-12-06T14:24:50.528Z,72.82
2018-12-06T14:27:18.754Z,73.14
2018-12-06T14:29:47.059Z,73.30
2018-12-06T14:32:15.381Z,73.53
2018-12-06T14:34:43.696Z,73.63
2018-12-06T14:37:11.953Z,73.76
2018-12-06T14:39:40.296Z,73.86
2018-12-06T14:42:08.543Z,73.78
2018-12-06T14:44:36.839Z,74.08
2018-12-06T14:47:05.172Z,74.77
2018-12-06T14:49:33.392Z,74.46
2018-12-06T14:52:01.737Z,74.50
2018-12-06T14:54:30.011Z,74.49
2018-12-06T14:56:58.331Z,74.46
2018-12-06T14:59:26.656Z,75.09
2018-12-06T15:01:54.957Z,75.18
2018-12-06T15:04:23.319Z,75.21
2018-12-06T15:06:51.616Z,75.49
2018-12-06T15:09:19.851Z,75.48
2018-12-06T15:12:19.281Z,75.62
2018-12-06T15:14:47.498Z,75.43
2018-12-06T15:17:15.752Z,75.83
2018-12-06T15:19:44.001Z,75.84
2018-12-06T15:22:13.490Z,75.37
2018-12-06T15:24:42.086Z,75.68
2018-12-06T15:27:10.365Z,75.59
2018-12-06T15:29:38.633Z,75.94
2018-12-06T15:32:06.913Z,76.56
2018-12-06T15:34:35.208Z,76.61
2018-12-06T15:37:03.591Z,76.49
2018-12-06T15:39:31.811Z,76.65
2018-12-06T15:42:00.031Z,76.28
2018-12-06T15:44:28.349Z,76.86
2018-12-06T15:46:56.660Z,77.05
2018-12-06T15:49:24.956Z,76.60
2018-12-06T15:51:53.176Z,77.14
2018-12-06T15:54:21.388Z,77.56
2018-12-06T15:56:49.672Z,77.24
2018-12-06T15:59:17.887Z,77.50
2018-12-06T16:01:46.246Z,78.03
2018-12-06T16:04:14.462Z,77.54
2018-12-06T16:06:42.702Z,78.13
2018-12-06T16:09:10.935Z,77.73
2018-12-06T16:11:39.198Z,78.46
2018-12-06T16:14:07.616Z,78.13
2018-12-06T16:16:35.850Z,77.84
2018-12-06T16:19:04.247Z,78.32
2018-12-06T16:21:33.122Z,78.51
2018-12-06T16:24:01.476Z,78.76
2018-12-06T16:26:30.330Z,78.47
2018-12-06T16:28:58.608Z,78.97
2018-12-06T16:31:26.839Z,79.27
2018-12-06T16:33:55.235Z,79.27
2018-12-06T16:36:23.453Z,79.20
2018-12-06T16:38:51.825Z,78.98
2018-12-06T16:41:20.696Z,79.13
2018-12-06T16:43:49.388Z,79.35
2018-12-06T16:46:17.924Z,79.42
2018-12-06T16:48:46.182Z,79.85
2018-12-06T16:51:14.600Z,79.41
2018-12-06T16:53:42.831Z,79.60
2018-12-06T16:56:11.263Z,79.96
2018-12-06T16:58:39.513Z,80.02
2018-12-06T17:01:07.823Z,79.78
2018-12-06T17:03:36.035Z,79.83
2018-12-06T17:06:04.376Z,80.24
2018-12-06T17:08:32.590Z,80.38
2018-12-06T17:11:01.228Z,80.48
2018-12-06T17:13:29.536Z,81.19
2018-12-06T17:15:57.845Z,81.02
2018-12-06T17:18:26.157Z,80.52
2018-12-06T17:20:54.542Z,80.84
2018-12-06T17:23:22.754Z,80.97
2018-12-06T17:25:51.007Z,81.22
2018-12-06T17:28:19.267Z,81.27
2018-12-06T17:30:47.539Z,81.22
2018-12-06T17:33:15.855Z,81.27
2018-12-06T17:35:44.167Z,81.55
2018-12-06T17:38:12.405Z,81.35
2018-12-06T17:40:40.720Z,80.89
2018-12-06T17:43:09.254Z,81.13
2018-12-06T17:45:37.671Z,80.91
2018-12-06T17:48:05.963Z,81.07
2018-12-06T17:50:34.466Z,80.52
2018-12-06T17:53:02.697Z,80.91
2018-12-06T17:55:31.119Z,80.78
2018-12-06T17:57:59.422Z,80.50
2018-12-06T18:00:27.856Z,80.56
2018-12-06T18:02:56.150Z,80.45
2018-12-06T18:05:24.408Z,80.63
2018-12-06T18:07:52.624Z,80.72
2018-12-06T18:10:21.148Z,80.15
2018-12-06T18:12:49.378Z,81.00
2018-12-06T18:15:17.972Z,80.71
2018-12-06T18:17:46.289Z,80.46
2018-12-06T18:20:14.600Z,79.93
2018-12-06T18:22:42.873Z,80.34
2018-12-06T18:25:11.200Z,80.32
2018-12-06T18:27:39.575Z,79.47
2018-12-06T18:30:09.866Z,79.88
2018-12-06T18:32:38.109Z,80.15
2018-12-06T18:35:06.560Z,79.79
2018-12-06T18:37:35.022Z,80.37
2018-12-06T18:40:04.285Z,80.11
2018-12-06T18:42:32.518Z,80.46
2018-12-06T18:45:00.798Z,80.08
2018-12-06T18:47:29.111Z,80.02
2018-12-06T18:49:57.448Z,79.73
2018-12-06T18:52:25.777Z,79.95
2018-12-06T18:54:54.094Z,80.14
2018-12-06T18:57:22.339Z,79.81
2018-12-06T18:59:50.722Z,80.00
2018-12-06T19:02:19.090Z,79.61
2018-12-06T19:04:48.324Z,79.83
2018-12-06T19:07:16.571Z,79.99
2018-12-06T19:09:44.831Z,79.99
2018-12-06T19:12:13.066Z,80.11
2018-12-06T19:14:41.448Z,79.77
2018-12-06T19:17:09.792Z,79.73
2018-12-06T19:19:38.034Z,80.16
2018-12-06T19:22:06.372Z,79.72
2018-12-06T19:24:34.822Z,79.74
2018-12-06T19:27:03.169Z,79.21
2018-12-06T19:29:31.412Z,78.93
2018-12-06T19:31:59.636Z,79.42
2018-12-06T19:34:27.930Z,79.17
2018-12-06T19:36:56.188Z,79.23
2018-12-06T19:39:24.459Z,79.13
2018-12-06T19:41:52.682Z,79.16
2018-12-06T19:44:21.011Z,79.19
2018-12-06T19:46:49.323Z,79.11
2018-12-06T19:49:17.763Z,79.17
2018-12-06T19:51:46.107Z,79.17
2018-12-06T19:54:14.353Z,79.26
2018-12-06T19:56:42.599Z,79.10
2018-12-06T19:59:10.892Z,79.26
2018-12-06T20:01:39.114Z,79.08
2018-12-06T20:04:07.356Z,78.98
2018-12-06T20:06:35.581Z,78.66
2018-12-06T20:09:05.611Z,79.06
2018-12-06T20:11:33.848Z,79.15
2018-12-06T20:14:02.191Z,78.68
2018-12-06T20:16:30.448Z,78.65
2018-12-06T20:18:58.773Z,78.43
2018-12-06T20:21:27.099Z,78.59
2018-12-06T20:23:55.478Z,78.22
2018-12-06T20:26:23.844Z,78.12
2018-12-06T20:28:52.182Z,78.42
2018-12-06T20:31:20.636Z,78.14
2018-12-06T20:33:48.875Z,77.75
2018-12-06T20:36:17.314Z,77.70
2018-12-06T20:38:45.635Z,77.31
2018-12-06T20:41:13.924Z,77.35
2018-12-06T20:43:42.127Z,77.55
2018-12-06T20:46:11.080Z,77.31
2018-12-06T20:48:39.320Z,77.22
2018-12-06T20:51:07.649Z,77.24
2018-12-06T20:53:35.931Z,76.96
2018-12-06T20:56:04.244Z,77.14
2018-12-06T20:58:32.560Z,76.83
2018-12-06T21:01:00.860Z,76.64
2018-12-06T21:03:29.405Z,76.87
2018-12-06T21:05:57.629Z,76.79
2018-12-06T21:08:25.959Z,76.56
2018-12-06T21:10:54.205Z,76.81
2018-12-06T21:13:22.428Z,77.31
2018-12-06T21:15:50.656Z,76.88
2018-12-06T21:18:19.027Z,76.62
2018-12-06T21:20:47.488Z,76.70
2018-12-06T21:23:15.775Z,76.48
2018-12-06T21:25:44.142Z,76.29
2018-12-06T21:28:12.451Z,76.22
2018-12-06T21:30:40.753Z,76.33
2018-12-06T21:33:09.109Z,76.64
2018-12-06T21:35:37.885Z,76.09
2018-12-06T21:38:06.229Z,75.98
2018-12-06T21:40:34.438Z,75.93
2018-12-06T21:43:02.730Z,76.06
2018-12-06T21:45:31.086Z,75.50
2018-12-06T21:47:59.388Z,75.95
2018-12-06T21:50:27.731Z,75.96
2018-12-06T21:52:55.987Z,75.46
2018-12-06T21:55:24.261Z,75.68
2018-12-06T21:57:52.532Z,75.36
2018-12-06T22:00:20.912Z,75.59
2018-12-06T22:02:49.263Z,75.22
2018-12-06T22:05:17.539Z,75.20
2018-12-06T22:07:45.791Z,75.04
2018-12-06T22:10:14.057Z,74.91
2018-12-06T22:12:42.336Z,74.69
2018-12-06T22:15:10.603Z,74.73
2018-12-06T22:17:38.877Z,74.51
2018-12-06T22:20:07.150Z,74.66
2018-12-06T22:22:35.465Z,74.73
2018-12-06T22:25:04.308Z,74.05
2018-12-06T22:27:32.581Z,74.28
2018-12-06T22:30:00.872Z,74.89
2018-12-06T22:32:29.235Z,74.36
2018-12-06T22:34:57.516Z,74.14
2018-12-06T22:37:25.799Z,74.41
2018-12-06T22:39:54.093Z,74.40
2018-12-06T22:42:22.443Z,74.47
2018-12-06T22:44:54.583Z,74.47
2018-12-06T22:47:23.036Z,74.14
2018-12-06T22:49:51.254Z,74.26
2018-12-06T22:52:19.530Z,74.13
2018-12-06T22:54:49.624Z,74.08
2018-12-06T22:57:18.089Z,74.27
2018-12-06T22:59:46.308Z,73.50
2018-12-06T23:02:14.707Z,73.90
2018-12-06T23:04:42.976Z,73.90
2018-12-06T23:07:11.263Z,73.80
2018-12-06T23:09:39.527Z,73.83
2018-12-06T23:12:07.920Z,73.36
2018-12-06T23:14:36.192Z,73.64
2018-12-06T23:17:04.489Z,73.79
2018-12-06T23:19:32.873Z,73.73
2018-12-06T23:22:01.121Z,73.42
2018-12-06T23:24:29.397Z,73.64
2018-12-06T23:26:57.634Z,74.06
2018-12-06T23:29:25.856Z,74.40
2018-12-06T23:31:54.248Z,74.10
2018-12-06T23:34:22.604Z,74.08
2018-12-06T23:36:51.043Z,73.74
2018-12-06T23:39:19.273Z,74.11
2018-12-06T23:41:47.629Z,74.39
2018-12-06T23:44:16.055Z,74.06
2018-12-06T23:46:44.329Z,74.40
2018-12-06T23:49:12.551Z,74.29
2018-12-06T23:51:40.841Z,74.14
2018-12-06T23:54:09.231Z,74.07
2018-12-06T23:56:37.584Z,73.86
2018-12-06T23:59:05.865Z,74.09
